Terminal Aerodrome Forecast
Issued by NWS

Home | Current Version | Previous Version | Text Only | Print | Product List | Glossary On
Versions: 1 2 3 4 5 6 7 8 9 10 11 12 13
000
FTUS44 KBMX 271800 AAA
TAFTOI
TAF AMD
KTOI 271852Z 2719/2818 11007KT P6SM OVC050
     FM272100 13005KT 6SM -RA BR BKN020 OVC040
      TEMPO 2721/2723 2SM TSRA BR OVC010CB
     FM280200 13004KT 3SM -RA BR OVC008=

USA.gov is the U.S. government's official web portal to all federal, state and local government web resources and services.